createdAt,value
2022-10-08T00:00:12.234Z,941.22
2022-10-08T00:01:13.141Z,941.23
2022-10-08T00:02:14.276Z,941.24
2022-10-08T00:03:14.429Z,941.23
2022-10-08T00:04:15.389Z,941.24
2022-10-08T00:05:15.628Z,941.22
2022-10-08T00:06:16.571Z,941.26
2022-10-08T00:07:17.631Z,941.24
2022-10-08T00:08:18.122Z,941.25
2022-10-08T00:09:18.781Z,941.24
2022-10-08T00:10:18.967Z,941.22
2022-10-08T00:11:19.305Z,941.25
2022-10-08T00:12:19.923Z,941.2
2022-10-08T00:13:20.911Z,941.24
2022-10-08T00:14:21.603Z,941.25
2022-10-08T00:15:21.948Z,941.23
2022-10-08T00:16:22.608Z,941.22
2022-10-08T00:17:23.037Z,941.25
2022-10-08T00:18:23.980Z,941.23
2022-10-08T00:19:24.199Z,941.24
2022-10-08T00:20:25.124Z,941.24
2022-10-08T00:21:25.343Z,941.23
2022-10-08T00:22:25.986Z,941.24
2022-10-08T00:23:26.901Z,941.25
2022-10-08T00:24:27.244Z,941.26
2022-10-08T00:25:27.427Z,941.25
2022-10-08T00:26:28.042Z,941.22
2022-10-08T00:27:28.628Z,941.23
2022-10-08T00:28:28.914Z,941.23
2022-10-08T00:29:29.696Z,941.25
2022-10-08T00:30:30.310Z,941.21
2022-10-08T00:31:31.031Z,941.21
2022-10-08T00:32:32.042Z,941.23
2022-10-08T00:33:32.363Z,941.23
2022-10-08T00:34:32.788Z,941.24
2022-10-08T00:35:33.699Z,941.22
2022-10-08T00:36:33.914Z,941.25
2022-10-08T00:37:34.262Z,941.21
2022-10-08T00:38:35.353Z,941.22
2022-10-08T00:39:35.863Z,941.21
2022-10-08T00:40:36.335Z,941.19
2022-10-08T00:41:36.545Z,941.21
2022-10-08T00:42:37.159Z,941.19
2022-10-08T00:43:37.792Z,941.18
2022-10-08T00:44:38.809Z,941.18
2022-10-08T00:45:39.576Z,941.18
2022-10-08T00:46:40.116Z,941.19
2022-10-08T00:47:40.301Z,941.18
2022-10-08T00:48:41.198Z,941.17
2022-10-08T00:49:41.406Z,941.17
2022-10-08T00:50:42.344Z,941.17
2022-10-08T00:51:42.861Z,941.2
2022-10-08T00:52:43.052Z,941.18
2022-10-08T00:53:44.057Z,941.16
2022-10-08T00:54:44.771Z,941.17
2022-10-08T00:55:45.281Z,941.17
2022-10-08T00:56:45.472Z,941.13
2022-10-08T00:57:46.371Z,941.18
2022-10-08T00:58:47.296Z,941.16
2022-10-08T00:59:48.207Z,941.2
2022-10-08T01:00:49.144Z,941.13
2022-10-08T01:01:49.623Z,941.17
2022-10-08T01:02:50.035Z,941.19
2022-10-08T01:03:50.764Z,941.18
2022-10-08T01:04:51.481Z,941.17
2022-10-08T01:05:51.707Z,941.16
2022-10-08T01:06:52.021Z,941.14
2022-10-08T01:07:52.944Z,941.16
2022-10-08T01:08:53.861Z,941.15
2022-10-08T01:09:54.962Z,941.12
2022-10-08T01:10:55.863Z,941.13
2022-10-08T01:11:56.478Z,941.13
2022-10-08T01:12:56.696Z,941.11
2022-10-08T01:13:57.443Z,941.17
2022-10-08T01:14:57.707Z,941.14
2022-10-08T01:15:58.614Z,941.13
2022-10-08T01:16:58.814Z,941.14
2022-10-08T01:17:59.147Z,941.12
2022-10-08T01:18:59.475Z,941.1
2022-10-08T01:19:59.670Z,941.09
2022-10-08T01:21:00.345Z,941.1
2022-10-08T01:22:00.571Z,941.07
2022-10-08T01:23:00.906Z,941.04
2022-10-08T01:24:01.815Z,941.05
2022-10-08T01:25:02.437Z,941.05
2022-10-08T01:26:03.360Z,941.05
2022-10-08T01:27:03.547Z,941.04
2022-10-08T01:28:03.796Z,941.05
2022-10-08T01:29:04.002Z,941.03
2022-10-08T01:30:04.206Z,941
2022-10-08T01:31:05.153Z,941.01
2022-10-08T01:32:05.357Z,941.06
2022-10-08T01:33:06.247Z,941.02
2022-10-08T01:34:06.437Z,941.04
2022-10-08T01:35:06.726Z,941.03
2022-10-08T01:36:06.938Z,941.03
2022-10-08T01:37:07.910Z,940.96
2022-10-08T01:38:08.820Z,941
2022-10-08T01:39:09.039Z,940.99
2022-10-08T01:40:09.699Z,940.97
2022-10-08T01:41:09.909Z,940.98
2022-10-08T01:42:10.520Z,940.96
2022-10-08T01:43:11.521Z,940.95
2022-10-08T01:44:12.450Z,940.96
2022-10-08T01:45:12.997Z,940.98
2022-10-08T01:46:13.350Z,940.99
2022-10-08T01:47:14.255Z,940.98
2022-10-08T01:48:14.752Z,940.96
2022-10-08T01:49:15.681Z,940.96
2022-10-08T01:50:16.596Z,940.94
2022-10-08T01:51:17.505Z,940.91
2022-10-08T01:52:17.741Z,940.93
2022-10-08T01:53:18.071Z,940.91
2022-10-08T01:54:18.968Z,940.9
2022-10-08T01:55:19.261Z,940.84
2022-10-08T01:56:19.744Z,940.88
2022-10-08T01:57:20.659Z,940.83
2022-10-08T01:58:21.555Z,940.88
2022-10-08T01:59:22.180Z,940.83
2022-10-08T02:00:22.516Z,940.82
2022-10-08T02:01:22.762Z,940.8
2022-10-08T02:02:23.515Z,940.83
2022-10-08T02:03:24.206Z,940.84
2022-10-08T02:04:24.842Z,940.83
2022-10-08T02:05:25.853Z,940.81
2022-10-08T02:06:26.742Z,940.75
2022-10-08T02:07:26.965Z,940.75
2022-10-08T02:08:27.874Z,940.77
2022-10-08T02:09:28.521Z,940.81
2022-10-08T02:10:29.163Z,940.76
2022-10-08T02:11:29.642Z,940.75
2022-10-08T02:12:30.535Z,940.76
2022-10-08T02:13:31.483Z,940.73
2022-10-08T02:14:31.698Z,940.66
2022-10-08T02:15:31.988Z,940.68
2022-10-08T02:16:32.383Z,940.68
2022-10-08T02:17:32.727Z,940.67
2022-10-08T02:18:33.216Z,940.67
2022-10-08T02:19:33.854Z,940.62
2022-10-08T02:20:34.897Z,940.65
2022-10-08T02:21:35.111Z,940.62
2022-10-08T02:22:36.056Z,940.61
2022-10-08T02:23:36.733Z,940.66
2022-10-08T02:24:37.368Z,940.61
2022-10-08T02:25:38.132Z,940.62
2022-10-08T02:26:38.731Z,940.61
2022-10-08T02:27:39.678Z,940.58
2022-10-08T02:28:40.613Z,940.6
2022-10-08T02:29:40.955Z,940.56
2022-10-08T02:30:41.547Z,940.63
2022-10-08T02:31:42.525Z,940.64
2022-10-08T02:32:42.981Z,940.62
2022-10-08T02:33:43.987Z,940.61
2022-10-08T02:34:44.878Z,940.64
2022-10-08T02:35:45.331Z,940.65
2022-10-08T02:36:45.657Z,940.64
2022-10-08T02:37:46.291Z,940.6
2022-10-08T02:38:46.880Z,940.65
2022-10-08T02:39:47.785Z,940.65
2022-10-08T02:40:48.010Z,940.59
2022-10-08T02:41:48.907Z,940.65
2022-10-08T02:42:50.083Z,940.61
2022-10-08T02:43:50.439Z,940.63
2022-10-08T02:44:51.383Z,940.6
2022-10-08T02:45:51.666Z,940.64
2022-10-08T02:46:52.639Z,940.65
2022-10-08T02:47:53.143Z,940.61
2022-10-08T02:48:53.340Z,940.67
2022-10-08T02:49:53.964Z,940.68
2022-10-08T02:50:54.872Z,940.69
2022-10-08T02:51:55.078Z,940.64
2022-10-08T02:52:55.350Z,940.64
2022-10-08T02:53:55.988Z,940.66
2022-10-08T02:54:56.193Z,940.68
2022-10-08T02:55:57.222Z,940.68
2022-10-08T02:56:57.402Z,940.66
2022-10-08T02:57:58.019Z,940.67
2022-10-08T02:58:58.651Z,940.66
2022-10-08T02:59:58.882Z,940.63
2022-10-08T03:00:59.138Z,940.66
2022-10-08T03:02:00.144Z,940.64
2022-10-08T03:03:01.023Z,940.7
2022-10-08T03:04:01.935Z,940.68
2022-10-08T03:05:02.432Z,940.7
2022-10-08T03:06:03.453Z,940.72
2022-10-08T03:07:04.340Z,940.72
2022-10-08T03:08:04.860Z,940.74
2022-10-08T03:09:05.754Z,940.77
2022-10-08T03:10:05.957Z,940.73
2022-10-08T03:11:06.190Z,940.78
2022-10-08T03:12:07.106Z,940.79
2022-10-08T03:13:07.724Z,940.81
2022-10-08T03:14:08.616Z,940.79
2022-10-08T03:15:08.970Z,940.81
2022-10-08T03:16:09.969Z,940.79
2022-10-08T03:17:10.427Z,940.8
2022-10-08T03:18:11.218Z,940.83
2022-10-08T03:19:11.560Z,940.84
2022-10-08T03:20:12.496Z,940.81
2022-10-08T03:21:13.102Z,940.77
2022-10-08T03:22:13.306Z,940.77
2022-10-08T03:23:13.533Z,940.8
2022-10-08T03:24:13.723Z,940.8
2022-10-08T03:25:14.637Z,940.81
2022-10-08T03:26:15.675Z,940.81
2022-10-08T03:27:15.855Z,940.81
2022-10-08T03:28:16.817Z,940.88
2022-10-08T03:29:17.695Z,940.8
2022-10-08T03:30:17.908Z,940.83
2022-10-08T03:31:18.284Z,940.85
2022-10-08T03:32:18.510Z,940.83
2022-10-08T03:33:19.006Z,940.84
2022-10-08T03:34:19.921Z,940.85
2022-10-08T03:35:20.855Z,940.83
2022-10-08T03:36:21.842Z,940.88
2022-10-08T03:37:22.035Z,940.85
2022-10-08T03:38:22.551Z,940.82
2022-10-08T03:39:23.536Z,940.83
2022-10-08T03:40:24.470Z,940.84
2022-10-08T03:41:25.115Z,940.82
2022-10-08T03:42:25.715Z,940.78
2022-10-08T03:43:26.200Z,940.81
2022-10-08T03:44:27.246Z,940.81
2022-10-08T03:45:27.474Z,940.84
2022-10-08T03:46:28.140Z,940.84
2022-10-08T03:47:28.923Z,940.85
2022-10-08T03:48:29.531Z,940.87
2022-10-08T03:49:30.146Z,940.8
2022-10-08T03:50:30.345Z,940.82
2022-10-08T03:51:30.837Z,940.89
2022-10-08T03:52:31.750Z,940.85
2022-10-08T03:53:32.552Z,940.9
2022-10-08T03:54:33.166Z,940.87
2022-10-08T03:55:33.398Z,940.87
2022-10-08T03:56:33.830Z,940.83
2022-10-08T03:57:34.038Z,940.89
2022-10-08T03:58:34.959Z,940.88
2022-10-08T03:59:35.176Z,940.87
2022-10-08T04:00:35.804Z,940.9
2022-10-08T04:01:36.432Z,940.91
2022-10-08T04:02:36.820Z,940.88
2022-10-08T04:03:37.256Z,940.91
2022-10-08T04:04:37.743Z,940.9
2022-10-08T04:05:38.658Z,940.95
2022-10-08T04:06:38.952Z,940.95
2022-10-08T04:07:39.139Z,940.91
2022-10-08T04:08:39.372Z,940.95
2022-10-08T04:09:40.281Z,940.96
2022-10-08T04:10:40.487Z,940.95
2022-10-08T04:11:41.427Z,940.96
2022-10-08T04:12:41.623Z,940.95
2022-10-08T04:13:42.478Z,940.98
2022-10-08T04:14:42.967Z,940.91
2022-10-08T04:15:43.252Z,940.93
2022-10-08T04:16:43.578Z,940.96
2022-10-08T04:17:43.785Z,940.99
2022-10-08T04:18:44.001Z,940.95
2022-10-08T04:19:44.909Z,940.91
2022-10-08T04:20:45.400Z,940.89
2022-10-08T04:21:45.622Z,940.9
2022-10-08T04:22:46.760Z,940.96
2022-10-08T04:23:46.884Z,940.95
2022-10-08T04:24:47.516Z,940.95
2022-10-08T04:25:47.854Z,940.95
2022-10-08T04:26:48.616Z,940.92
2022-10-08T04:27:49.516Z,940.95
2022-10-08T04:28:50.658Z,940.96
2022-10-08T04:29:51.638Z,940.99
2022-10-08T04:30:51.893Z,941
2022-10-08T04:31:52.572Z,941.01
2022-10-08T04:32:53.484Z,940.96
2022-10-08T04:33:54.389Z,941
2022-10-08T04:34:54.724Z,940.99
2022-10-08T04:35:59.091Z,940.94
2022-10-08T04:36:55.842Z,940.95
2022-10-08T04:37:56.762Z,940.96
2022-10-08T04:38:56.974Z,940.98
2022-10-08T04:39:57.891Z,941.01
2022-10-08T04:40:58.531Z,940.98
2022-10-08T04:41:59.192Z,940.98
2022-10-08T04:42:59.793Z,940.98
2022-10-08T04:44:00.694Z,940.96
2022-10-08T04:45:00.902Z,940.94
2022-10-08T04:46:01.587Z,940.94
2022-10-08T04:47:02.256Z,941
2022-10-08T04:48:02.872Z,941.02
2022-10-08T04:49:03.373Z,940.99
2022-10-08T04:50:03.583Z,941
2022-10-08T04:51:06.952Z,941.03
2022-10-08T04:52:04.029Z,941.02
2022-10-08T04:53:04.925Z,941.01
2022-10-08T04:54:05.160Z,941.02
2022-10-08T04:55:06.052Z,941.03
2022-10-08T04:56:06.940Z,941.05
2022-10-08T04:57:07.959Z,941.04
2022-10-08T04:58:08.154Z,941.02
2022-10-08T04:59:08.357Z,941.01
2022-10-08T05:00:20.758Z,941.02
2022-10-08T05:01:09.710Z,941.04
2022-10-08T05:02:10.435Z,941.05
2022-10-08T05:03:10.612Z,940.98
2022-10-08T05:04:11.334Z,940.89
2022-10-08T05:05:12.249Z,940.89
2022-10-08T05:06:13.163Z,940.92
2022-10-08T05:07:13.878Z,940.93
2022-10-08T05:08:14.510Z,940.9
2022-10-08T05:09:14.729Z,940.93
2022-10-08T05:10:14.952Z,940.95
2022-10-08T05:11:15.881Z,940.9
2022-10-08T05:12:16.819Z,940.96
2022-10-08T05:13:17.720Z,940.94
2022-10-08T05:14:18.619Z,940.97
2022-10-08T05:15:19.526Z,940.97
2022-10-08T05:16:20.326Z,940.96
2022-10-08T05:17:20.504Z,941
2022-10-08T05:18:20.710Z,941
2022-10-08T05:19:21.221Z,941.03
2022-10-08T05:20:22.166Z,941.04
2022-10-08T05:21:22.828Z,941.03
2022-10-08T05:22:23.737Z,941.01
2022-10-08T05:23:23.923Z,940.96
2022-10-08T05:24:24.565Z,940.99
2022-10-08T05:25:24.760Z,940.97
2022-10-08T05:26:41.339Z,940.97
2022-10-08T05:27:41.672Z,940.95
2022-10-08T05:28:42.662Z,940.97
2022-10-08T05:29:42.955Z,940.97
2022-10-08T05:30:43.908Z,940.99
2022-10-08T05:31:44.092Z,941.01
2022-10-08T05:32:44.566Z,940.99
2022-10-08T05:33:45.167Z,941
2022-10-08T05:34:46.094Z,940.99
2022-10-08T05:35:47.012Z,941.01
2022-10-08T05:36:47.238Z,941.03
2022-10-08T05:37:48.224Z,941.04
2022-10-08T05:38:49.143Z,941.03
2022-10-08T05:39:50.087Z,941.02
2022-10-08T05:40:50.684Z,941
2022-10-08T05:41:51.003Z,941.04
2022-10-08T05:42:51.347Z,941.03
2022-10-08T05:43:51.951Z,940.99
2022-10-08T05:44:52.590Z,940.98
2022-10-08T05:45:53.307Z,941.02
2022-10-08T05:46:54.214Z,941.03
2022-10-08T05:47:54.350Z,941.01
2022-10-08T05:48:54.962Z,941.01
2022-10-08T05:49:55.894Z,941.01
2022-10-08T05:50:56.112Z,941.05
2022-10-08T05:51:56.751Z,941.03
2022-10-08T05:52:57.661Z,941.05
2022-10-08T05:53:58.372Z,941.04
2022-10-08T05:54:59.317Z,941.06
2022-10-08T05:55:59.958Z,941.06
2022-10-08T05:57:00.155Z,941.09
2022-10-08T05:58:00.476Z,941.15
2022-10-08T05:59:00.678Z,941.17
2022-10-08T06:00:01.320Z,941.16
2022-10-08T06:01:01.516Z,941.15
2022-10-08T06:02:02.452Z,941.21
2022-10-08T06:03:02.680Z,941.18
2022-10-08T06:04:08.370Z,941.2
2022-10-08T06:05:04.900Z,941.2
2022-10-08T06:06:05.749Z,941.23
2022-10-08T06:07:06.669Z,941.19
2022-10-08T06:08:07.686Z,941.27
2022-10-08T06:09:08.606Z,941.22
2022-10-08T06:10:08.859Z,941.21
2022-10-08T06:11:09.771Z,941.23
2022-10-08T06:12:10.268Z,941.21
2022-10-08T06:13:10.911Z,941.24
2022-10-08T06:14:11.795Z,941.24
2022-10-08T06:15:12.744Z,941.22
2022-10-08T06:16:12.971Z,941.22
2022-10-08T06:17:13.539Z,941.26
2022-10-08T06:18:13.976Z,941.28
2022-10-08T06:19:14.473Z,941.3
2022-10-08T06:20:14.691Z,941.31
2022-10-08T06:21:15.084Z,941.3
2022-10-08T06:22:16.004Z,941.32
2022-10-08T06:23:16.621Z,941.35
2022-10-08T06:24:17.133Z,941.38
2022-10-08T06:25:17.651Z,941.36
2022-10-08T06:26:17.970Z,941.37
2022-10-08T06:27:18.151Z,941.39
2022-10-08T06:28:18.433Z,941.41
2022-10-08T06:29:18.938Z,941.42
2022-10-08T06:30:19.277Z,941.44
2022-10-08T06:31:19.554Z,941.49
2022-10-08T06:32:20.480Z,941.52
2022-10-08T06:33:21.380Z,941.53
2022-10-08T06:34:21.979Z,941.53
2022-10-08T06:35:22.608Z,941.52
2022-10-08T06:36:23.208Z,941.47
2022-10-08T06:37:24.115Z,941.53
2022-10-08T06:38:24.387Z,941.54
2022-10-08T06:39:25.305Z,941.55
2022-10-08T06:40:25.785Z,941.57
2022-10-08T06:41:25.971Z,941.54
2022-10-08T06:42:26.887Z,941.6
2022-10-08T06:43:27.826Z,941.63
2022-10-08T06:44:28.484Z,941.64
2022-10-08T06:45:29.372Z,941.65
2022-10-08T06:46:30.021Z,941.64
2022-10-08T06:47:30.255Z,941.67
2022-10-08T06:48:31.278Z,941.67
2022-10-08T06:49:31.774Z,941.67
2022-10-08T06:50:32.295Z,941.66
2022-10-08T06:51:32.911Z,941.68
2022-10-08T06:52:33.105Z,941.75
2022-10-08T06:53:33.836Z,941.72
2022-10-08T06:54:34.765Z,941.71
2022-10-08T06:55:35.711Z,941.7
2022-10-08T06:56:36.163Z,941.79
2022-10-08T06:57:36.490Z,941.78
2022-10-08T06:58:36.949Z,941.73
2022-10-08T06:59:37.859Z,941.81
2022-10-08T07:00:38.098Z,941.79
2022-10-08T07:01:38.472Z,941.77
2022-10-08T07:02:38.795Z,941.82
2022-10-08T07:03:38.998Z,941.86
2022-10-08T07:04:39.612Z,941.85
2022-10-08T07:05:40.242Z,941.89
2022-10-08T07:06:41.139Z,941.86
2022-10-08T07:07:42.052Z,941.9
2022-10-08T07:08:42.491Z,941.87
2022-10-08T07:09:42.833Z,941.85
2022-10-08T07:10:43.760Z,941.85
2022-10-08T07:11:44.383Z,941.86
2022-10-08T07:12:45.228Z,941.9
2022-10-08T07:13:45.796Z,941.8
2022-10-08T07:14:46.017Z,941.86
2022-10-08T07:15:47.058Z,941.85
2022-10-08T07:16:47.366Z,941.87
2022-10-08T07:17:48.220Z,941.86
2022-10-08T07:18:48.810Z,941.93
2022-10-08T07:19:49.719Z,941.92
2022-10-08T07:20:50.654Z,941.94
2022-10-08T07:21:50.873Z,941.9
2022-10-08T07:22:51.935Z,941.98
2022-10-08T07:23:52.554Z,941.94
2022-10-08T07:24:52.771Z,941.97
2022-10-08T07:25:53.032Z,941.93
2022-10-08T07:26:53.673Z,941.96
2022-10-08T07:27:53.874Z,942
2022-10-08T07:28:54.778Z,941.97
2022-10-08T07:29:55.254Z,941.96
2022-10-08T07:30:55.877Z,942.02
2022-10-08T07:31:56.646Z,942.11
2022-10-08T07:32:57.240Z,942.01
2022-10-08T07:33:57.462Z,941.99
2022-10-08T07:35:00.067Z,942.02
2022-10-08T07:35:58.805Z,942.04
2022-10-08T07:36:59.024Z,942.03
2022-10-08T07:37:59.968Z,942.06
2022-10-08T07:39:00.687Z,942.04
2022-10-08T07:40:00.884Z,941.98
2022-10-08T07:41:01.418Z,942
2022-10-08T07:42:02.036Z,942.05
2022-10-08T07:43:02.531Z,942.03
2022-10-08T07:44:03.024Z,942.03
2022-10-08T07:45:03.960Z,942
2022-10-08T07:46:04.947Z,942.01
2022-10-08T07:47:05.729Z,942.02
2022-10-08T07:48:06.047Z,942.01
2022-10-08T07:49:06.379Z,942.05
2022-10-08T07:50:06.566Z,942
2022-10-08T07:51:07.193Z,942
2022-10-08T07:52:08.104Z,942.02
2022-10-08T07:53:09.006Z,942.01
2022-10-08T07:54:09.915Z,942
2022-10-08T07:55:10.815Z,941.99
2022-10-08T07:56:11.045Z,942
2022-10-08T07:57:11.242Z,942
2022-10-08T07:58:12.288Z,942.01
2022-10-08T07:59:12.466Z,942.06
2022-10-08T08:00:12.895Z,942.04
2022-10-08T08:01:13.152Z,942.06
2022-10-08T08:02:14.302Z,942.03
2022-10-08T08:03:14.484Z,942.05
2022-10-08T08:04:15.417Z,942.05
2022-10-08T08:05:15.905Z,942.1
2022-10-08T08:06:16.409Z,942.05
2022-10-08T08:07:17.022Z,942.02
2022-10-08T08:08:17.994Z,942.02
2022-10-08T08:09:18.447Z,942.02
2022-10-08T08:10:18.929Z,942.01
2022-10-08T08:11:20.017Z,941.99
2022-10-08T08:12:20.217Z,942
2022-10-08T08:13:20.417Z,942
2022-10-08T08:14:21.317Z,942.01
2022-10-08T08:15:21.508Z,942.01
2022-10-08T08:16:22.250Z,942.05
2022-10-08T08:17:22.358Z,942.01
2022-10-08T08:18:22.676Z,942.03
2022-10-08T08:19:23.409Z,942.07
2022-10-08T08:20:24.373Z,942.04
2022-10-08T08:21:24.910Z,942.06
2022-10-08T08:22:25.831Z,942.07
2022-10-08T08:23:26.025Z,942.08
2022-10-08T08:24:26.948Z,942.07
2022-10-08T08:25:27.167Z,942.08
2022-10-08T08:26:28.141Z,942.1
2022-10-08T08:27:28.363Z,942.07
2022-10-08T08:28:29.039Z,942.08
2022-10-08T08:29:29.270Z,942.11
2022-10-08T08:30:30.175Z,942.09
2022-10-08T08:31:31.136Z,942.13
2022-10-08T08:32:31.744Z,942.08
2022-10-08T08:33:32.267Z,942.08
2022-10-08T08:34:33.207Z,942.04
2022-10-08T08:35:34.137Z,942.08
2022-10-08T08:36:35.068Z,942.07
2022-10-08T08:37:35.697Z,942.07
2022-10-08T08:38:35.899Z,942.06
2022-10-08T08:39:36.039Z,942.07
2022-10-08T08:40:36.657Z,942.02
2022-10-08T08:41:37.645Z,942.04
2022-10-08T08:42:38.566Z,942.03
2022-10-08T08:43:39.411Z,942.02
2022-10-08T08:44:40.339Z,941.99
2022-10-08T08:45:47.964Z,942.02
2022-10-08T08:46:41.401Z,941.99
2022-10-08T08:47:42.168Z,942.02
2022-10-08T08:48:43.104Z,942
2022-10-08T08:49:43.863Z,942.03
2022-10-08T08:50:47.978Z,942.05
2022-10-08T08:51:44.808Z,942.08
2022-10-08T08:52:45.790Z,942.05
2022-10-08T08:53:46.187Z,942.08
2022-10-08T08:54:46.533Z,942.1
2022-10-08T08:55:47.181Z,942.15
2022-10-08T08:56:47.712Z,942.1
2022-10-08T08:57:47.932Z,942.09
2022-10-08T08:58:48.184Z,942.12
2022-10-08T08:59:49.084Z,942.09
2022-10-08T09:00:49.741Z,942.12
2022-10-08T09:01:50.197Z,942.12
2022-10-08T09:02:51.115Z,942.16
2022-10-08T09:03:51.609Z,942.15
2022-10-08T09:04:52.546Z,942.17
2022-10-08T09:05:52.996Z,942.16
2022-10-08T09:06:53.674Z,942.17
2022-10-08T09:07:54.571Z,942.15
2022-10-08T09:08:54.914Z,942.17
2022-10-08T09:09:55.674Z,942.15
2022-10-08T09:10:56.357Z,942.15
2022-10-08T09:11:57.022Z,942.13
2022-10-08T09:12:57.849Z,942.18
2022-10-08T09:13:58.056Z,942.19
2022-10-08T09:14:59.020Z,942.17
2022-10-08T09:15:59.504Z,942.19
2022-10-08T09:17:00.343Z,942.11
2022-10-08T09:18:01.164Z,942.12
2022-10-08T09:19:02.084Z,942.11
2022-10-08T09:20:02.828Z,942.17
2022-10-08T09:21:03.336Z,942.14
2022-10-08T09:22:03.571Z,942.11
2022-10-08T09:23:04.220Z,942.12
2022-10-08T09:24:04.824Z,942.14
2022-10-08T09:25:05.731Z,942.14
2022-10-08T09:26:06.086Z,942.13
2022-10-08T09:27:06.315Z,942.15
2022-10-08T09:28:06.974Z,942.15
2022-10-08T09:29:07.207Z,942.1
2022-10-08T09:30:07.844Z,942.12
2022-10-08T09:31:08.999Z,942.14
2022-10-08T09:32:08.526Z,942.09
2022-10-08T09:33:09.654Z,942.09
2022-10-08T09:34:10.278Z,942.07
2022-10-08T09:35:10.495Z,942.1
2022-10-08T09:36:10.702Z,942.11
2022-10-08T09:37:11.314Z,942.13
2022-10-08T09:38:12.216Z,942.15
2022-10-08T09:39:12.418Z,942.14
2022-10-08T09:40:12.882Z,942.09
2022-10-08T09:41:13.826Z,942.15
2022-10-08T09:42:14.490Z,942.09
2022-10-08T09:43:15.414Z,942.08
2022-10-08T09:44:16.059Z,942.14
2022-10-08T09:45:20.248Z,942.11
2022-10-08T09:46:17.332Z,942.12
2022-10-08T09:47:18.269Z,942.13
2022-10-08T09:48:18.727Z,942.02
2022-10-08T09:49:19.670Z,942.09
2022-10-08T09:50:20.804Z,942.09
2022-10-08T09:51:20.880Z,942.11
2022-10-08T09:52:21.085Z,942.14
2022-10-08T09:53:21.995Z,942.14
2022-10-08T09:54:22.652Z,942.14
2022-10-08T09:55:23.562Z,942.14
2022-10-08T09:56:24.492Z,942.13
2022-10-08T09:57:25.438Z,942.14
2022-10-08T09:58:25.930Z,942.1
2022-10-08T09:59:26.427Z,942.14
2022-10-08T10:00:27.487Z,942.14
2022-10-08T10:01:28.014Z,942.07
2022-10-08T10:02:28.316Z,942.11
2022-10-08T10:03:29.088Z,942.12
2022-10-08T10:04:29.547Z,942.11
2022-10-08T10:05:30.205Z,942.14
2022-10-08T10:06:30.430Z,942.17
2022-10-08T10:07:30.938Z,942.15
2022-10-08T10:08:31.566Z,942.17
2022-10-08T10:09:31.904Z,942.2
2022-10-08T10:10:32.112Z,942.19
2022-10-08T10:11:32.756Z,942.17
2022-10-08T10:12:32.988Z,942.14
2022-10-08T10:13:33.507Z,942.14
2022-10-08T10:14:34.531Z,942.13
2022-10-08T10:15:34.882Z,942.12
2022-10-08T10:16:35.409Z,942.09
2022-10-08T10:17:35.703Z,942.09
2022-10-08T10:18:36.201Z,942.05
2022-10-08T10:19:36.704Z,942.08
2022-10-08T10:20:37.759Z,942.05
2022-10-08T10:21:38.386Z,942.07
2022-10-08T10:22:38.925Z,942.1
2022-10-08T10:23:39.864Z,942.11
2022-10-08T10:24:40.789Z,942.08
2022-10-08T10:25:41.722Z,942.05
2022-10-08T10:26:42.707Z,942.07
2022-10-08T10:27:42.949Z,942.08
2022-10-08T10:28:43.929Z,942.09
2022-10-08T10:29:44.946Z,942.02
2022-10-08T10:30:45.951Z,942.02
2022-10-08T10:31:46.545Z,942.04
2022-10-08T10:32:46.937Z,942.06
2022-10-08T10:33:46.972Z,942.07
2022-10-08T10:34:47.895Z,942.07
2022-10-08T10:35:48.848Z,942.04
2022-10-08T10:36:49.746Z,942.04
2022-10-08T10:37:50.734Z,942.01
2022-10-08T10:38:51.636Z,941.92
2022-10-08T10:39:51.930Z,941.94
2022-10-08T10:40:51.950Z,941.93
2022-10-08T10:41:52.295Z,941.92
2022-10-08T10:42:52.527Z,941.91
2022-10-08T10:43:53.162Z,941.88
2022-10-08T10:44:53.791Z,941.87
2022-10-08T10:45:54.383Z,941.87
2022-10-08T10:46:55.353Z,941.88
2022-10-08T10:47:56.274Z,941.82
2022-10-08T10:48:56.794Z,941.85
2022-10-08T10:49:57.704Z,941.82
2022-10-08T10:50:58.748Z,941.81
2022-10-08T10:51:58.955Z,941.8
2022-10-08T10:52:59.866Z,941.81
2022-10-08T10:54:00.363Z,941.82
2022-10-08T10:55:00.987Z,941.81
2022-10-08T10:56:01.914Z,941.81
2022-10-08T10:57:02.408Z,941.86
2022-10-08T10:58:02.634Z,941.85
2022-10-08T10:59:03.566Z,941.83
2022-10-08T11:00:03.762Z,941.83
2022-10-08T11:01:04.106Z,941.81
2022-10-08T11:02:04.582Z,941.86
2022-10-08T11:03:05.580Z,941.83
2022-10-08T11:04:06.406Z,941.85
2022-10-08T11:05:07.343Z,941.83
2022-10-08T11:06:08.003Z,941.83
2022-10-08T11:07:08.943Z,941.8
2022-10-08T11:08:09.575Z,941.78
2022-10-08T11:09:10.214Z,941.83
2022-10-08T11:10:11.135Z,941.82
2022-10-08T11:11:11.907Z,941.82
2022-10-08T11:12:12.716Z,941.84
2022-10-08T11:13:13.658Z,941.82
2022-10-08T11:14:14.298Z,941.78
2022-10-08T11:15:14.528Z,941.8
2022-10-08T11:16:15.539Z,941.82
2022-10-08T11:17:18.698Z,941.79
2022-10-08T11:18:16.099Z,941.78
2022-10-08T11:19:17.005Z,941.79
2022-10-08T11:20:17.341Z,941.81
2022-10-08T11:21:17.540Z,941.81
2022-10-08T11:22:18.457Z,941.79
2022-10-08T11:23:19.087Z,941.8
2022-10-08T11:24:19.717Z,941.79
2022-10-08T11:25:20.342Z,941.8
2022-10-08T11:26:22.985Z,941.81
2022-10-08T11:27:21.425Z,941.78
2022-10-08T11:28:21.726Z,941.77
2022-10-08T11:29:22.300Z,941.79
2022-10-08T11:30:22.921Z,941.77
2022-10-08T11:31:24.058Z,941.77
2022-10-08T11:32:24.508Z,941.77
2022-10-08T11:33:24.731Z,941.75
2022-10-08T11:34:25.685Z,941.74
2022-10-08T11:35:26.308Z,941.74
2022-10-08T11:36:30.589Z,941.71
2022-10-08T11:37:26.833Z,941.73
2022-10-08T11:38:27.468Z,941.72
2022-10-08T11:39:28.413Z,941.7
2022-10-08T11:40:29.327Z,941.71
2022-10-08T11:41:29.948Z,941.68
2022-10-08T11:42:30.878Z,941.73
2022-10-08T11:43:31.415Z,941.71
2022-10-08T11:44:32.464Z,941.69
2022-10-08T11:45:33.366Z,941.72
2022-10-08T11:46:34.152Z,941.7
2022-10-08T11:47:34.190Z,941.68
2022-10-08T11:48:34.818Z,941.73
2022-10-08T11:49:35.148Z,941.77
2022-10-08T11:50:35.572Z,941.77
2022-10-08T11:51:36.366Z,941.75
2022-10-08T11:52:36.987Z,941.79
2022-10-08T11:53:37.900Z,941.75
2022-10-08T11:54:38.216Z,941.75
2022-10-08T11:55:38.870Z,941.78
2022-10-08T11:56:39.070Z,941.76
2022-10-08T11:58:05.920Z,941.79
2022-10-08T11:58:40.125Z,941.75
2022-10-08T11:59:40.353Z,941.75
2022-10-08T12:00:40.605Z,941.72
2022-10-08T12:01:41.264Z,941.73
2022-10-08T12:02:42.259Z,941.69
2022-10-08T12:03:43.165Z,941.72
2022-10-08T12:04:43.575Z,941.69
2022-10-08T12:05:47.938Z,941.7
2022-10-08T12:06:44.776Z,941.66
2022-10-08T12:07:45.417Z,941.64
2022-10-08T12:08:46.034Z,941.64
2022-10-08T12:09:46.685Z,941.64
2022-10-08T12:10:47.582Z,941.66
2022-10-08T12:11:48.314Z,941.64
2022-10-08T12:12:49.149Z,941.64
2022-10-08T12:13:49.635Z,941.62
2022-10-08T12:14:50.551Z,941.63
2022-10-08T12:15:51.656Z,941.63
2022-10-08T12:16:52.505Z,941.62
2022-10-08T12:17:53.414Z,941.63
2022-10-08T12:18:53.644Z,941.62
2022-10-08T12:19:54.020Z,941.61
2022-10-08T12:20:54.201Z,941.62
2022-10-08T12:21:54.935Z,941.6
2022-10-08T12:22:55.565Z,941.58
2022-10-08T12:23:55.782Z,941.59
2022-10-08T12:24:56.418Z,941.54
2022-10-08T12:25:56.639Z,941.54
2022-10-08T12:26:57.568Z,941.52
2022-10-08T12:27:58.214Z,941.51
2022-10-08T12:28:58.394Z,941.49
2022-10-08T12:29:58.630Z,941.46
2022-10-08T12:30:59.197Z,941.49
2022-10-08T12:31:59.882Z,941.48
2022-10-08T12:33:00.366Z,941.46
2022-10-08T12:34:00.572Z,941.43
2022-10-08T12:35:01.197Z,941.43
2022-10-08T12:36:02.118Z,941.42
2022-10-08T12:37:02.406Z,941.45
2022-10-08T12:38:03.425Z,941.47
2022-10-08T12:39:03.631Z,941.45
2022-10-08T12:40:03.833Z,941.45